Time;durP1;ratioP1;P1;durP2;ratioP2;P2;SDS_P1;SDS_P2;PMS_P1;PMS_P2;Temp;Humidity;BMP_temperature;BMP_pressure;BME280_temperature;BME280_humidity;BME280_pressure;Samples;Min_cycle;Max_cycle;Signal;HPM_P1;HPM_P2
2022/06/17 00:00:06;;;;;;;9.73;5.33;;;15.00;43.90;;;;;;5074988;28;46520;-64
2022/06/17 00:02:31;;;;;;;13.03;6.40;;;14.90;43.90;;;;;;5072766;28;47657;-61
2022/06/17 00:04:57;;;;;;;12.40;6.40;;;14.90;43.90;;;;;;5073481;28;46393;-63
2022/06/17 00:07:22;;;;;;;10.80;6.87;;;14.90;43.80;;;;;;5074050;28;46400;-62
2022/06/17 00:09:48;;;;;;;12.37;5.97;;;15.00;44.10;;;;;;5069902;28;46402;-62
2022/06/17 00:12:14;;;;;;;10.33;5.53;;;14.90;44.10;;;;;;5073336;28;46403;-64
2022/06/17 00:17:25;;;;;;;8.07;5.83;;;14.90;44.20;;;;;;5069267;28;46458;-63
2022/06/17 00:19:50;;;;;;;9.43;5.60;;;14.90;44.10;;;;;;5068284;28;46431;-62
2022/06/17 00:22:16;;;;;;;11.60;5.50;;;14.90;44.30;;;;;;5074154;28;47354;-62
2022/06/17 00:24:42;;;;;;;8.20;5.43;;;14.90;44.30;;;;;;5070675;28;46697;-62
2022/06/17 00:27:10;;;;;;;8.20;4.93;;;14.70;44.60;;;;;;5072361;28;46448;-62
2022/06/17 00:29:36;;;;;;;9.50;5.90;;;14.60;44.90;;;;;;5071636;28;46510;-62
2022/06/17 00:32:02;;;;;;;8.27;5.50;;;14.50;45.30;;;;;;5073012;28;47312;-62
2022/06/17 00:34:28;;;;;;;6.33;5.20;;;14.40;45.50;;;;;;5072268;28;45826;-63
2022/06/17 00:36:59;;;;;;;16.00;6.10;;;14.30;45.70;;;;;;5069289;28;45814;-61
2022/06/17 00:39:27;;;;;;;14.13;6.70;;;14.30;45.80;;;;;;5069172;28;46644;-62
2022/06/17 00:41:58;;;;;;;9.13;6.23;;;14.30;45.90;;;;;;5071914;28;47125;-63
2022/06/17 00:44:49;;;;;;;9.60;5.57;;;14.30;45.80;;;;;;5074111;28;46041;-62
2022/06/17 00:47:44;;;;;;;8.23;6.13;;;14.30;45.80;;;;;;5071843;28;45819;-62
2022/06/17 00:50:30;;;;;;;10.87;6.47;;;14.30;45.70;;;;;;5067677;28;46459;-62
2022/06/17 00:53:09;;;;;;;10.63;6.47;;;14.40;45.80;;;;;;5070436;28;46703;-61
2022/06/17 00:55:50;;;;;;;10.30;6.27;;;14.40;45.70;;;;;;5071916;28;46447;-63
2022/06/17 00:58:23;;;;;;;11.63;6.97;;;14.40;45.70;;;;;;5067060;28;46598;-62
2022/06/17 01:00:54;;;;;;;11.20;6.93;;;14.40;45.70;;;;;;5069676;28;46427;-62
2022/06/17 01:03:27;;;;;;;9.60;7.03;;;14.40;45.80;;;;;;5066465;28;46572;-64
2022/06/17 01:06:02;;;;;;;13.77;6.70;;;14.30;45.80;;;;;;5076002;27;46388;-63
2022/06/17 01:11:16;;;;;;;9.30;6.70;;;14.30;46.00;;;;;;5071358;28;46314;-62
2022/06/17 01:13:47;;;;;;;13.77;6.50;;;14.30;45.90;;;;;;5068713;28;46361;-62
2022/06/17 01:16:13;;;;;;;10.43;6.00;;;14.30;46.20;;;;;;5070811;28;46341;-64
2022/06/17 01:18:43;;;;;;;12.40;6.40;;;14.30;46.20;;;;;;5069513;28;46125;-62
2022/06/17 01:21:32;;;;;;;9.10;6.17;;;14.30;46.30;;;;;;5069600;28;45898;-62
2022/06/17 01:23:58;;;;;;;12.57;6.23;;;14.30;46.90;;;;;;5069486;28;46602;-61
2022/06/17 01:26:24;;;;;;;9.17;5.80;;;14.30;46.50;;;;;;5066495;28;46366;-62
2022/06/17 01:28:50;;;;;;;11.00;6.00;;;14.20;46.70;;;;;;5071320;28;46318;-63
2022/06/17 01:31:17;;;;;;;8.57;5.90;;;14.10;46.90;;;;;;5066947;28;46528;-62
2022/06/17 01:33:44;;;;;;;8.33;5.87;;;14.10;47.20;;;;;;5071442;28;46817;-64
2022/06/17 01:36:24;;;;;;;9.27;6.53;;;14.00;47.40;;;;;;5068725;28;46418;-62
2022/06/17 01:38:52;;;;;;;10.37;6.50;;;13.90;47.60;;;;;;5070689;28;46385;-63
2022/06/17 01:41:21;;;;;;;9.67;6.10;;;13.90;47.60;;;;;;5074127;28;45938;-62
2022/06/17 01:43:56;;;;;;;7.67;5.33;;;13.80;47.70;;;;;;5070922;28;46376;-62
2022/06/17 01:46:38;;;;;;;9.80;6.40;;;13.80;48.00;;;;;;5069948;28;46546;-62
2022/06/17 01:49:05;;;;;;;10.73;6.73;;;13.80;48.00;;;;;;5071681;28;46499;-62
2022/06/17 01:51:34;;;;;;;14.03;7.50;;;13.70;48.00;;;;;;5068575;28;46455;-61
2022/06/17 01:54:05;;;;;;;7.93;6.10;;;13.70;48.30;;;;;;5072783;28;46989;-63
2022/06/17 01:56:34;;;;;;;8.20;6.00;;;13.70;48.40;;;;;;5070974;28;46418;-62
2022/06/17 01:59:12;;;;;;;10.07;6.33;;;13.70;48.30;;;;;;5069094;28;46374;-64
2022/06/17 02:01:42;;;;;;;8.70;5.87;;;13.70;48.50;;;;;;5069217;27;46448;-63
2022/06/17 02:04:17;;;;;;;11.90;6.10;;;13.70;48.40;;;;;;5066451;28;46600;-62
2022/06/17 02:06:56;;;;;;;10.17;5.90;;;13.60;48.70;;;;;;5071580;28;46408;-62
2022/06/17 02:09:22;;;;;;;21.73;5.07;;;13.60;48.80;;;;;;5066576;28;45927;-62
2022/06/17 02:11:48;;;;;;;7.93;4.50;;;13.50;48.80;;;;;;5070520;28;46391;-62
2022/06/17 02:14:14;;;;;;;6.43;4.90;;;13.40;48.90;;;;;;5068633;28;46615;-63
2022/06/17 02:16:47;;;;;;;7.90;4.87;;;13.20;49.10;;;;;;5069950;28;46431;-63
2022/06/17 02:19:13;;;;;;;7.60;5.30;;;13.10;49.40;;;;;;5068746;28;46473;-63
2022/06/17 02:21:45;;;;;;;15.63;5.93;;;12.90;49.90;;;;;;5074048;28;46838;-62
2022/06/17 02:24:11;;;;;;;9.40;6.90;;;12.80;49.90;;;;;;5071670;28;48017;-63
2022/06/17 02:26:40;;;;;;;9.23;6.03;;;12.80;50.00;;;;;;5073722;28;46408;-64
2022/06/17 02:29:09;;;;;;;11.13;6.47;;;12.80;50.10;;;;;;5069269;28;46501;-63
2022/06/17 02:31:36;;;;;;;9.90;5.60;;;12.80;50.00;;;;;;5069873;28;46397;-63
2022/06/17 02:34:05;;;;;;;19.43;6.57;;;12.70;50.00;;;;;;5069540;28;47117;-62
2022/06/17 02:36:43;;;;;;;9.17;6.80;;;12.70;49.90;;;;;;5071207;28;46472;-63
2022/06/17 02:39:12;;;;;;;8.50;5.37;;;12.70;50.10;;;;;;5071770;28;46381;-63
2022/06/17 02:41:39;;;;;;;16.13;7.60;;;12.70;49.80;;;;;;5068448;28;46725;-63
2022/06/17 02:44:18;;;;;;;12.40;6.00;;;12.80;50.00;;;;;;5069285;28;46386;-65
2022/06/17 02:46:46;;;;;;;8.43;6.70;;;12.80;50.00;;;;;;5074241;28;46346;-64
2022/06/17 02:49:20;;;;;;;19.00;6.77;;;12.80;49.90;;;;;;5069884;28;46462;-63
2022/06/17 02:51:45;;;;;;;10.80;6.47;;;12.70;50.10;;;;;;5072336;28;46454;-63
2022/06/17 02:54:18;;;;;;;11.00;6.70;;;12.70;50.20;;;;;;5072841;28;46286;-63
2022/06/17 02:56:50;;;;;;;8.60;6.40;;;12.60;50.30;;;;;;5071969;28;46404;-63
2022/06/17 02:59:26;;;;;;;11.40;6.50;;;12.50;50.30;;;;;;5074637;28;46472;-63
2022/06/17 03:01:56;;;;;;;9.47;6.63;;;12.50;50.60;;;;;;5073092;28;46511;-63
2022/06/17 03:04:28;;;;;;;8.10;6.10;;;12.40;50.50;;;;;;5073084;28;47726;-63
2022/06/17 03:06:54;;;;;;;15.77;6.90;;;12.40;50.60;;;;;;5073217;28;46327;-63
2022/06/17 03:09:31;;;;;;;10.30;6.80;;;12.40;50.80;;;;;;5072084;28;46395;-62
2022/06/17 03:12:03;;;;;;;13.07;7.30;;;12.30;50.90;;;;;;5072615;28;45809;-63
2022/06/17 03:14:36;;;;;;;8.53;6.47;;;12.30;50.90;;;;;;5071475;28;47278;-62
2022/06/17 03:17:07;;;;;;;10.30;6.90;;;12.20;51.00;;;;;;5070892;28;46412;-63
2022/06/17 03:19:36;;;;;;;8.53;6.23;;;12.10;51.10;;;;;;5070574;28;46390;-62
2022/06/17 03:22:03;;;;;;;12.10;7.07;;;12.10;51.30;;;;;;5072176;28;46480;-62
2022/06/17 03:25:15;;;;;;;13.00;7.20;;;12.10;51.30;;;;;;5070632;28;47945;-64
2022/06/17 03:27:43;;;;;;;8.07;6.40;;;12.10;53.00;;;;;;5058164;28;46620;-62
2022/06/17 03:30:12;;;;;;;13.13;7.27;;;12.00;51.30;;;;;;5072982;28;46431;-65
2022/06/17 03:32:41;;;;;;;14.10;7.20;;;12.10;51.30;;;;;;5073595;28;46430;-63
2022/06/17 03:35:18;;;;;;;14.70;6.17;;;12.10;51.30;;;;;;5070896;28;46684;-63
2022/06/17 03:37:52;;;;;;;8.50;6.60;;;12.10;51.40;;;;;;5069191;28;46444;-63
2022/06/17 03:40:25;;;;;;;11.73;6.43;;;12.20;51.20;;;;;;5074245;28;46367;-63
2022/06/17 03:43:06;;;;;;;17.57;7.23;;;12.20;51.10;;;;;;5069386;28;46441;-62
2022/06/17 03:45:53;;;;;;;13.37;7.40;;;12.30;51.20;;;;;;5072008;28;46415;-63
2022/06/17 03:48:45;;;;;;;9.37;7.00;;;12.40;51.10;;;;;;5068821;28;46398;-62
2022/06/17 03:51:16;;;;;;;14.33;6.77;;;12.50;51.10;;;;;;5070698;28;46434;-62
2022/06/17 03:53:43;;;;;;;12.90;6.60;;;12.50;50.70;;;;;;5070742;28;46446;-62
2022/06/17 03:56:11;;;;;;;10.90;7.30;;;12.60;50.50;;;;;;5072886;28;46947;-63
2022/06/17 03:58:39;;;;;;;9.70;7.03;;;12.70;50.60;;;;;;5070337;28;46440;-63
2022/06/17 04:01:29;;;;;;;13.30;7.07;;;12.90;50.50;;;;;;5075364;28;46437;-63
2022/06/17 04:04:00;;;;;;;18.40;6.60;;;13.00;50.40;;;;;;5070015;28;46432;-62
2022/06/17 04:06:36;;;;;;;14.67;6.03;;;13.20;49.90;;;;;;5071889;28;46886;-63
2022/06/17 04:09:12;;;;;;;8.47;5.73;;;13.30;49.70;;;;;;5072121;28;46389;-62
2022/06/17 04:11:39;;;;;;;9.47;6.40;;;13.50;49.50;;;;;;5077713;28;46364;-62
2022/06/17 04:14:14;;;;;;;9.70;6.33;;;13.60;49.00;;;;;;5074953;28;46447;-63
2022/06/17 04:16:50;;;;;;;8.70;5.63;;;13.80;50.10;;;;;;5074419;28;46694;-63
2022/06/17 04:19:16;;;;;;;11.17;7.10;;;13.90;48.50;;;;;;5071394;28;46378;-62
2022/06/17 04:21:43;;;;;;;11.93;6.03;;;14.10;48.30;;;;;;5072894;28;46452;-63
2022/06/17 04:24:16;;;;;;;11.80;6.60;;;14.20;47.90;;;;;;5069502;28;45931;-65
2022/06/17 04:26:43;;;;;;;8.43;6.40;;;14.40;47.80;;;;;;5070863;28;46331;-63
2022/06/17 04:29:15;;;;;;;7.77;5.87;;;14.60;47.50;;;;;;5073519;28;46785;-65
2022/06/17 04:31:43;;;;;;;12.13;6.10;;;14.80;47.20;;;;;;5070812;28;46409;-62
2022/06/17 04:34:17;;;;;;;6.90;5.77;;;14.90;47.20;;;;;;5073391;28;46436;-62
2022/06/17 04:36:48;;;;;;;11.77;6.80;;;15.00;47.20;;;;;;5068801;28;46585;-62
2022/06/17 04:39:21;;;;;;;23.93;7.10;;;15.10;47.00;;;;;;5073043;28;46325;-62
2022/06/17 04:41:50;;;;;;;10.00;6.33;;;15.30;47.00;;;;;;5074124;28;46460;-61
2022/06/17 04:44:16;;;;;;;7.50;5.17;;;15.90;46.00;;;;;;5068647;28;46365;-62
2022/06/17 04:46:47;;;;;;;31.23;6.40;;;17.90;44.20;;;;;;5072969;28;46426;-62
2022/06/17 04:49:18;;;;;;;8.97;5.40;;;19.90;40.00;;;;;;5074323;28;45882;-62
2022/06/17 04:51:44;;;;;;;10.10;5.07;;;21.70;35.60;;;;;;5072395;28;46576;-61
2022/06/17 04:54:11;;;;;;;10.87;4.90;;;23.20;33.20;;;;;;5072558;28;46413;-62
2022/06/17 04:56:46;;;;;;;7.23;4.50;;;24.60;30.40;;;;;;5072317;28;46374;-62
2022/06/17 04:59:30;;;;;;;7.73;4.60;;;25.30;28.00;;;;;;5071184;28;46344;-62
2022/06/17 05:01:56;;;;;;;7.00;4.67;;;25.70;26.60;;;;;;5075224;28;46503;-62
2022/06/17 05:04:23;;;;;;;10.77;5.10;;;26.30;26.70;;;;;;5072250;28;46644;-63
2022/06/17 05:06:49;;;;;;;8.33;4.50;;;27.30;24.50;;;;;;5070425;28;46222;-62
2022/06/17 05:09:17;;;;;;;10.50;5.07;;;28.30;22.60;;;;;;5071119;28;46335;-64
2022/06/17 05:11:46;;;;;;;8.13;3.80;;;28.80;21.10;;;;;;5067708;28;46435;-62
2022/06/17 05:14:23;;;;;;;8.80;4.30;;;28.40;20.80;;;;;;5073563;28;46382;-62
2022/06/17 05:16:49;;;;;;;11.60;5.60;;;28.30;20.80;;;;;;5065824;28;46595;-62
2022/06/17 05:19:14;;;;;;;11.57;4.33;;;28.90;19.80;;;;;;5069634;28;46446;-64
2022/06/17 05:21:40;;;;;;;11.53;4.53;;;28.90;19.30;;;;;;5066385;28;46403;-63
2022/06/17 05:24:08;;;;;;;5.90;3.80;;;29.00;19.10;;;;;;5070137;28;46374;-63
2022/06/17 05:26:33;;;;;;;6.80;3.80;;;28.90;18.90;;;;;;5069389;28;45976;-61
2022/06/17 05:28:59;;;;;;;8.77;4.10;;;28.80;18.50;;;;;;5068231;28;46389;-62
2022/06/17 05:31:26;;;;;;;6.13;4.20;;;28.30;19.60;;;;;;5070932;28;46450;-63
2022/06/17 05:33:52;;;;;;;6.90;4.23;;;28.10;19.60;;;;;;5066895;28;46432;-60
2022/06/17 05:36:17;;;;;;;7.23;4.17;;;28.20;19.00;;;;;;5070397;28;46642;-61
2022/06/17 05:38:43;;;;;;;7.93;3.90;;;28.60;18.30;;;;;;5072135;28;46389;-62
2022/06/17 05:41:17;;;;;;;11.63;3.53;;;29.40;17.30;;;;;;5069801;28;46475;-61
2022/06/17 05:43:43;;;;;;;8.63;3.47;;;28.90;16.30;;;;;;5071598;28;46441;-61
2022/06/17 05:46:09;;;;;;;8.17;3.93;;;28.00;17.40;;;;;;5071739;28;47154;-61
2022/06/17 05:48:34;;;;;;;6.20;3.53;;;27.10;18.30;;;;;;5065940;28;46363;-62
2022/06/17 05:51:00;;;;;;;10.87;3.80;;;26.60;18.90;;;;;;5066821;28;46488;-61
2022/06/17 05:53:26;;;;;;;4.77;3.43;;;26.50;18.70;;;;;;5070391;28;46486;-62
2022/06/17 05:55:52;;;;;;;5.70;3.93;;;26.10;19.20;;;;;;5069846;28;46459;-62
2022/06/17 05:58:17;;;;;;;7.87;3.60;;;25.10;21.10;;;;;;5062571;28;46536;-62
2022/06/17 06:00:43;;;;;;;8.50;4.10;;;24.40;22.00;;;;;;5068202;28;46512;-61
2022/06/17 06:03:17;;;;;;;10.40;4.20;;;23.80;22.30;;;;;;5071154;28;46414;-62
2022/06/17 06:05:42;;;;;;;5.67;3.63;;;23.40;22.40;;;;;;5068168;28;47074;-61
2022/06/17 06:08:08;;;;;;;7.10;3.83;;;23.00;22.80;;;;;;5065769;28;46425;-62
2022/06/17 06:10:35;;;;;;;8.50;3.73;;;22.90;22.50;;;;;;5066753;28;46435;-62
2022/06/17 06:13:03;;;;;;;6.93;3.90;;;22.80;22.60;;;;;;5071125;28;46646;-62
2022/06/17 06:15:41;;;;;;;15.47;4.27;;;22.80;22.90;;;;;;5064002;28;47444;-63
2022/06/17 06:18:10;;;;;;;6.47;4.13;;;22.80;22.80;;;;;;5067676;28;46622;-60
2022/06/17 06:20:36;;;;;;;12.13;4.10;;;22.60;22.80;;;;;;5066503;28;46550;-61
2022/06/17 06:23:02;;;;;;;8.30;3.97;;;22.70;22.30;;;;;;5066518;28;46529;-61
2022/06/17 06:25:28;;;;;;;8.73;4.10;;;22.80;22.10;;;;;;5071811;28;46419;-62
2022/06/17 06:27:53;;;;;;;5.90;3.63;;;23.00;22.00;;;;;;5068496;28;46337;-62
2022/06/17 06:30:28;;;;;;;7.57;4.00;;;23.10;21.80;;;;;;5065889;28;46419;-62
2022/06/17 06:32:59;;;;;;;12.27;3.70;;;23.20;22.60;;;;;;5066690;28;46409;-63
2022/06/17 06:35:30;;;;;;;7.83;3.50;;;23.10;22.00;;;;;;5065503;28;46472;-61
2022/06/17 06:37:56;;;;;;;8.70;3.47;;;22.70;21.40;;;;;;5069763;28;46384;-60
2022/06/17 06:40:23;;;;;;;11.00;4.13;;;22.80;21.10;;;;;;5069257;28;46398;-61
2022/06/17 06:42:51;;;;;;;6.73;3.83;;;22.70;21.20;;;;;;5069611;28;46416;-61
2022/06/17 06:45:24;;;;;;;10.13;4.27;;;22.70;21.20;;;;;;5070141;28;46440;-63
2022/06/17 06:47:52;;;;;;;6.93;4.33;;;22.70;20.90;;;;;;5069440;28;46447;-61
2022/06/17 06:50:22;;;;;;;13.00;3.53;;;22.40;20.70;;;;;;5069776;28;45779;-61
2022/06/17 06:52:48;;;;;;;13.10;4.00;;;22.50;20.80;;;;;;5066849;28;46402;-61
2022/06/17 06:55:15;;;;;;;6.20;3.53;;;22.60;20.80;;;;;;5068100;28;47019;-63
2022/06/17 06:57:49;;;;;;;6.17;4.27;;;22.70;20.80;;;;;;5072161;28;45732;-61
2022/06/17 07:00:23;;;;;;;6.07;3.90;;;23.00;20.70;;;;;;5067205;28;46858;-61
2022/06/17 07:02:49;;;;;;;11.30;3.83;;;23.10;20.80;;;;;;5070110;28;46488;-61
2022/06/17 07:05:15;;;;;;;6.33;3.43;;;23.30;20.60;;;;;;5069270;28;46417;-63
2022/06/17 07:07:41;;;;;;;6.50;3.37;;;23.50;20.70;;;;;;5072461;28;46349;-61
2022/06/17 07:10:17;;;;;;;14.63;3.83;;;23.70;20.70;;;;;;5069431;28;46369;-63
2022/06/17 07:12:43;;;;;;;10.67;4.13;;;23.80;20.40;;;;;;5070077;28;46402;-63
2022/06/17 07:15:09;;;;;;;10.30;3.43;;;24.10;20.40;;;;;;5069960;28;48142;-61
2022/06/17 07:17:35;;;;;;;11.93;4.43;;;24.20;20.30;;;;;;5070649;28;46380;-61
2022/06/17 07:20:00;;;;;;;6.10;3.17;;;24.40;20.20;;;;;;5072785;28;45868;-63
2022/06/17 07:22:26;;;;;;;8.93;4.17;;;24.60;20.40;;;;;;5070093;28;46392;-61
2022/06/17 07:24:51;;;;;;;9.63;3.83;;;24.70;19.90;;;;;;5073863;28;47048;-62
2022/06/17 07:27:18;;;;;;;12.30;3.83;;;24.70;20.10;;;;;;5069178;28;46421;-63
2022/06/17 07:29:43;;;;;;;8.23;3.83;;;24.80;20.10;;;;;;5072117;27;46545;-62
2022/06/17 07:32:09;;;;;;;12.10;3.90;;;24.90;19.90;;;;;;5073603;28;46551;-61
2022/06/17 07:34:35;;;;;;;11.40;3.70;;;24.70;20.10;;;;;;5073219;28;46993;-61
2022/06/17 07:39:53;;;;;;;7.17;3.90;;;24.40;20.90;;;;;;5071144;28;46539;-62
2022/06/17 07:42:19;;;;;;;9.30;3.70;;;24.70;20.90;;;;;;5071735;28;46432;-60
2022/06/17 07:44:45;;;;;;;8.00;3.60;;;24.90;21.10;;;;;;5071862;28;46246;-61
2022/06/17 07:47:15;;;;;;;8.50;3.87;;;25.00;21.10;;;;;;5071507;28;46504;-60
2022/06/17 07:49:40;;;;;;;5.30;3.57;;;25.10;20.70;;;;;;5068434;28;45837;-61
2022/06/17 07:52:06;;;;;;;16.80;4.20;;;25.10;20.60;;;;;;5068850;27;46494;-62
2022/06/17 07:54:32;;;;;;;9.40;4.13;;;25.00;20.70;;;;;;5072045;27;46439;-61
2022/06/17 07:56:57;;;;;;;14.33;4.53;;;25.10;20.20;;;;;;5074843;28;46523;-63
2022/06/17 07:59:23;;;;;;;6.27;3.50;;;25.30;19.90;;;;;;5071482;28;46437;-63
2022/06/17 08:01:48;;;;;;;9.80;4.17;;;25.20;20.10;;;;;;5073782;28;46671;-62
2022/06/17 08:04:14;;;;;;;9.13;3.90;;;25.30;20.00;;;;;;5071385;28;47261;-60
2022/06/17 08:06:40;;;;;;;8.33;3.07;;;25.40;19.70;;;;;;5073163;28;46449;-60
2022/06/17 08:09:06;;;;;;;9.87;3.87;;;25.60;19.70;;;;;;5072369;28;46349;-61
2022/06/17 08:11:31;;;;;;;9.53;2.97;;;25.70;19.60;;;;;;5070029;28;46442;-62
2022/06/17 08:13:57;;;;;;;11.67;3.80;;;25.70;19.40;;;;;;5074549;28;46373;-64
2022/06/17 08:16:23;;;;;;;6.60;4.10;;;25.60;19.30;;;;;;5071230;28;46380;-62
2022/06/17 08:18:49;;;;;;;7.90;3.70;;;25.40;19.30;;;;;;5073729;28;46442;-62
2022/06/17 08:21:14;;;;;;;9.57;3.20;;;25.50;19.30;;;;;;5069447;28;46698;-62
2022/06/17 08:23:41;;;;;;;9.50;3.47;;;25.70;19.30;;;;;;5070957;28;47162;-62
2022/06/17 08:26:07;;;;;;;9.47;4.23;;;25.50;19.40;;;;;;5070926;27;46423;-62
2022/06/17 08:28:32;;;;;;;8.67;3.37;;;25.40;19.30;;;;;;5068217;28;46132;-64
2022/06/17 08:30:58;;;;;;;5.90;3.20;;;25.40;19.30;;;;;;5072847;28;46415;-63
2022/06/17 08:33:32;;;;;;;7.50;3.10;;;25.60;19.10;;;;;;5072899;28;46502;-62
2022/06/17 08:36:06;;;;;;;8.63;3.43;;;25.70;19.00;;;;;;5071237;28;46467;-61
2022/06/17 08:38:34;;;;;;;12.50;3.50;;;25.70;19.00;;;;;;5068863;28;46306;-61
2022/06/17 08:41:22;;;;;;;5.90;3.50;;;25.60;18.40;;;;;;5069723;28;46639;-62
2022/06/17 08:44:16;;;;;;;7.83;3.37;;;25.40;19.00;;;;;;5072439;28;46708;-61
2022/06/17 08:47:01;;;;;;;13.80;4.83;;;25.40;18.70;;;;;;5070754;28;45914;-61
2022/06/17 08:49:29;;;;;;;44.67;6.67;;;25.40;18.90;;;;;;5070172;28;46419;-64
2022/06/17 08:52:27;;;;;;;8.07;3.00;;;25.40;18.40;;;;;;5074051;28;46656;-61
2022/06/17 08:55:19;;;;;;;7.03;2.93;;;25.30;18.00;;;;;;5072191;28;46313;-62
2022/06/17 08:58:05;;;;;;;18.33;3.67;;;25.30;18.00;;;;;;5070401;28;46355;-61
2022/06/17 09:00:55;;;;;;;6.53;3.10;;;25.40;18.10;;;;;;5069658;28;46406;-62
2022/06/17 09:03:32;;;;;;;5.93;3.23;;;25.50;17.70;;;;;;5067195;28;46403;-63
2022/06/17 09:05:58;;;;;;;6.70;3.77;;;25.40;17.10;;;;;;5072007;28;47099;-61
2022/06/17 09:08:41;;;;;;;7.83;3.40;;;25.00;16.80;;;;;;5074546;28;46304;-62
2022/06/17 09:11:07;;;;;;;6.53;2.97;;;24.90;17.70;;;;;;5071195;28;46500;-61
2022/06/17 09:14:00;;;;;;;9.60;4.50;;;24.80;17.70;;;;;;5073688;28;45910;-61
2022/06/17 09:16:49;;;;;;;6.97;3.47;;;24.90;17.70;;;;;;5068378;28;47104;-61
2022/06/17 09:19:26;;;;;;;5.87;3.20;;;25.30;17.70;;;;;;5071766;28;46403;-61
2022/06/17 09:21:56;;;;;;;5.23;3.20;;;25.60;17.10;;;;;;5067124;28;46505;-63
2022/06/17 09:24:37;;;;;;;6.50;2.90;;;25.50;16.90;;;;;;5069764;28;46540;-61
2022/06/17 09:27:06;;;;;;;11.30;3.10;;;25.40;16.80;;;;;;5068029;28;47163;-60
2022/06/17 09:29:34;;;;;;;16.60;5.47;;;25.40;16.70;;;;;;5071505;28;45881;-60
2022/06/17 09:32:14;;;;;;;9.03;3.23;;;25.40;16.70;;;;;;5069822;28;46721;-62
2022/06/17 09:35:04;;;;;;;8.87;2.90;;;25.20;15.60;;;;;;5067611;28;46575;-63
2022/06/17 09:37:42;;;;;;;6.87;2.93;;;25.10;15.80;;;;;;5069142;28;47377;-61
2022/06/17 09:40:13;;;;;;;8.90;3.10;;;24.90;15.20;;;;;;5071193;28;46506;-63
2022/06/17 09:42:46;;;;;;;9.20;3.00;;;24.70;15.90;;;;;;5071321;28;46438;-62
2022/06/17 09:45:25;;;;;;;4.40;2.63;;;25.00;15.00;;;;;;5070042;28;46428;-60
2022/06/17 09:48:16;;;;;;;4.53;2.40;;;25.30;15.10;;;;;;5073306;28;48258;-60
2022/06/17 09:51:07;;;;;;;6.93;3.33;;;25.30;14.30;;;;;;5071069;28;46583;-63
2022/06/17 09:53:48;;;;;;;4.50;2.40;;;24.90;14.00;;;;;;5071220;27;46532;-62
2022/06/17 09:56:40;;;;;;;14.07;3.07;;;24.90;14.80;;;;;;5069107;28;46423;-60
2022/06/17 09:59:32;;;;;;;6.00;2.93;;;24.80;14.70;;;;;;5069541;28;46500;-61
2022/06/17 10:02:06;;;;;;;6.53;2.47;;;24.80;14.70;;;;;;5068234;28;46504;-62
2022/06/17 10:04:32;;;;;;;4.87;2.23;;;25.00;14.80;;;;;;5068672;28;46370;-61
2022/06/17 10:07:20;;;;;;;8.37;2.77;;;25.30;14.80;;;;;;5068584;28;46412;-59
2022/06/17 10:10:30;;;;;;;14.60;2.93;;;25.30;13.80;;;;;;5068971;28;47206;-61
2022/06/17 10:13:08;;;;;;;5.20;2.80;;;25.50;14.20;;;;;;5039015;28;46402;-63
2022/06/17 10:19:21;;;;;;;6.97;2.83;;;25.80;14.30;;;;;;5070197;28;46483;-62
2022/06/17 10:22:02;;;;;;;8.20;2.93;;;26.20;14.00;;;;;;5069982;28;47194;-62
2022/06/17 10:24:49;;;;;;;8.03;2.33;;;26.50;14.60;;;;;;5072742;28;46379;-62
2022/06/17 10:27:49;;;;;;;5.23;2.20;;;26.40;13.70;;;;;;5072975;28;46635;-61
2022/06/17 10:30:38;;;;;;;4.83;2.17;;;26.60;13.70;;;;;;5068852;28;46434;-64
2022/06/17 10:33:04;;;;;;;6.13;2.57;;;26.70;13.30;;;;;;5072851;28;46607;-62
2022/06/17 10:35:36;;;;;;;9.30;2.60;;;26.90;13.10;;;;;;5071502;28;46415;-63
2022/06/17 10:38:05;;;;;;;5.23;2.60;;;26.60;13.20;;;;;;5071149;28;46420;-62
2022/06/17 10:40:34;;;;;;;6.83;2.70;;;26.20;13.10;;;;;;5069728;28;46597;-62
2022/06/17 10:43:05;;;;;;;4.10;2.70;;;26.20;13.00;;;;;;5068175;28;47026;-61
2022/06/17 10:45:31;;;;;;;6.57;2.70;;;26.10;13.30;;;;;;5068001;28;46465;-62
2022/06/17 10:48:23;;;;;;;3.90;2.40;;;26.30;13.30;;;;;;5069909;28;46688;-60
2022/06/17 10:50:49;;;;;;;7.53;2.80;;;26.50;12.50;;;;;;5071246;28;46408;-62
2022/06/17 10:53:35;;;;;;;7.73;3.10;;;26.60;12.70;;;;;;5069656;28;47105;-61
2022/06/17 10:56:05;;;;;;;4.93;2.90;;;26.50;12.80;;;;;;5072097;28;46477;-62
2022/06/17 10:58:33;;;;;;;5.97;2.60;;;26.30;12.70;;;;;;5064715;28;46402;-62
2022/06/17 11:01:15;;;;;;;5.80;2.70;;;26.00;13.00;;;;;;5068437;28;46655;-62
2022/06/17 11:03:43;;;;;;;4.97;2.70;;;26.20;13.00;;;;;;5067224;28;46363;-61
2022/06/17 11:06:08;;;;;;;6.77;2.37;;;26.10;13.30;;;;;;5070623;28;46506;-63
2022/06/17 11:08:39;;;;;;;10.53;2.40;;;26.40;13.70;;;;;;5071606;28;46446;-62
2022/06/17 11:13:55;;;;;;;6.73;2.17;;;26.20;12.70;;;;;;5069899;28;46456;-61
2022/06/17 11:16:24;;;;;;;4.30;2.33;;;26.50;13.00;;;;;;5070919;28;46518;-61
2022/06/17 11:19:05;;;;;;;6.50;2.20;;;26.60;12.70;;;;;;5073396;28;46542;-63
2022/06/17 11:21:53;;;;;;;5.60;2.60;;;26.20;12.40;;;;;;5074654;28;46364;-62
2022/06/17 11:24:24;;;;;;;5.50;1.97;;;26.40;12.60;;;;;;5070583;28;46348;-62
2022/06/17 11:27:26;;;;;;;6.63;2.27;;;26.60;12.20;;;;;;5070406;28;45885;-61
2022/06/17 11:29:53;;;;;;;5.47;2.53;;;26.80;12.00;;;;;;5070200;28;46576;-63
2022/06/17 11:32:19;;;;;;;4.70;2.10;;;26.80;11.60;;;;;;5068512;28;46444;-63
2022/06/17 11:34:59;;;;;;;7.80;2.30;;;26.60;11.60;;;;;;5070112;28;48420;-61
2022/06/17 11:37:29;;;;;;;5.73;2.03;;;26.30;10.70;;;;;;5070513;28;46374;-62
2022/06/17 11:40:24;;;;;;;5.00;2.20;;;26.20;11.10;;;;;;5071762;28;45899;-64
2022/06/17 11:42:58;;;;;;;4.90;1.90;;;26.10;10.80;;;;;;5073785;28;46458;-61
2022/06/17 11:45:34;;;;;;;3.63;2.10;;;26.00;10.90;;;;;;5072345;28;46409;-62
2022/06/17 11:48:13;;;;;;;3.97;1.80;;;26.20;11.80;;;;;;5075129;28;46388;-63
2022/06/17 11:50:42;;;;;;;3.73;2.03;;;26.50;11.90;;;;;;5066830;28;46388;-61
2022/06/17 11:53:15;;;;;;;6.07;2.20;;;26.60;10.50;;;;;;5073578;28;46499;-62
2022/06/17 11:55:48;;;;;;;3.93;1.97;;;26.30;10.50;;;;;;5069668;28;46324;-62
2022/06/17 11:58:17;;;;;;;3.63;1.80;;;26.40;10.00;;;;;;5073017;28;46479;-62
2022/06/17 12:00:48;;;;;;;3.57;2.10;;;26.20;10.00;;;;;;5068250;28;46535;-62
2022/06/17 12:03:17;;;;;;;16.63;2.17;;;26.20;9.90;;;;;;5073551;28;46626;-63
2022/06/17 12:05:56;;;;;;;5.00;2.50;;;26.30;9.80;;;;;;5070994;28;47097;-63
2022/06/17 12:08:28;;;;;;;3.50;1.80;;;26.50;10.70;;;;;;5070199;28;46341;-63
2022/06/17 12:11:03;;;;;;;5.63;1.90;;;26.60;11.10;;;;;;5074702;28;46463;-63
2022/06/17 12:13:37;;;;;;;4.37;1.63;;;27.00;11.10;;;;;;5071019;28;45823;-63
2022/06/17 12:16:26;;;;;;;6.67;1.70;;;27.20;11.30;;;;;;5075418;28;48229;-63
2022/06/17 12:18:57;;;;;;;6.53;1.90;;;27.30;11.00;;;;;;5072976;28;46420;-61
2022/06/17 12:21:29;;;;;;;3.20;1.73;;;27.30;10.80;;;;;;5072225;27;46640;-60
2022/06/17 12:24:16;;;;;;;5.23;1.83;;;27.20;10.10;;;;;;5074419;28;46337;-60
2022/06/17 12:27:01;;;;;;;4.30;1.80;;;26.90;10.00;;;;;;5073085;28;48158;-60
2022/06/17 12:29:50;;;;;;;4.20;1.63;;;27.20;9.60;;;;;;5072342;28;46451;-62
2022/06/17 12:32:25;;;;;;;4.20;1.70;;;27.30;9.30;;;;;;5070135;28;46397;-59
2022/06/17 12:34:54;;;;;;;4.83;1.77;;;27.20;9.10;;;;;;5073678;28;46349;-62
2022/06/17 12:37:28;;;;;;;3.97;1.60;;;27.30;9.10;;;;;;5072123;28;47085;-61
2022/06/17 12:40:06;;;;;;;9.57;1.67;;;27.30;9.70;;;;;;5072365;28;46673;-62
2022/06/17 12:42:57;;;;;;;5.30;1.77;;;27.40;9.50;;;;;;5068304;28;46283;-61
2022/06/17 12:45:41;;;;;;;4.50;2.10;;;27.60;9.70;;;;;;5072410;28;46448;-61
2022/06/17 12:48:28;;;;;;;5.50;1.77;;;27.30;8.70;;;;;;5065791;28;46423;-63
2022/06/17 12:54:19;;;;;;;5.10;1.70;;;27.50;10.40;;;;;;5066843;28;46408;-59
2022/06/17 12:57:22;;;;;;;3.83;1.73;;;27.60;10.40;;;;;;5073446;28;46705;-61
2022/06/17 13:00:03;;;;;;;3.37;1.80;;;27.70;9.30;;;;;;5065524;28;46794;-60
2022/06/17 13:03:07;;;;;;;4.43;1.67;;;27.70;9.10;;;;;;5068545;28;46471;-62
2022/06/17 13:05:41;;;;;;;2.83;1.60;;;27.70;8.60;;;;;;5070521;28;46420;-62
2022/06/17 13:08:17;;;;;;;2.87;1.60;;;27.60;7.70;;;;;;5072444;28;46429;-60
2022/06/17 13:11:20;;;;;;;3.33;1.57;;;27.40;7.70;;;;;;5072910;28;47839;-60
2022/06/17 13:13:52;;;;;;;2.80;1.60;;;27.50;7.70;;;;;;5070450;28;46384;-61
2022/06/17 13:16:33;;;;;;;7.40;1.90;;;27.60;7.30;;;;;;5071891;28;46306;-62
2022/06/17 13:19:20;;;;;;;5.33;1.73;;;27.60;7.40;;;;;;5071496;28;46429;-61
2022/06/17 13:22:18;;;;;;;3.60;1.57;;;27.60;7.10;;;;;;5073842;28;46460;-62
2022/06/17 13:24:56;;;;;;;3.40;1.73;;;27.50;6.60;;;;;;5069064;28;46311;-61
2022/06/17 13:27:38;;;;;;;3.03;1.43;;;27.60;7.10;;;;;;5071361;27;46384;-61
2022/06/17 13:30:09;;;;;;;3.13;1.60;;;27.80;7.30;;;;;;5069092;28;46389;-60
2022/06/17 13:32:56;;;;;;;2.80;1.70;;;27.90;7.30;;;;;;5072749;28;46488;-61